sensor_id;sensor_type;location;lat;lon;timestamp;pressure;altitude;pressure_sealevel;temperature;humidity
6028;BME280;3042;43.194;27.646;2024-03-22T00:01:45;101932.75;;;11.48;100.00
6028;BME280;3042;43.194;27.646;2024-03-22T00:04:13;101936.13;;;11.19;100.00
6028;BME280;3042;43.194;27.646;2024-03-22T00:06:40;101921.72;;;10.94;100.00
6028;BME280;3042;43.194;27.646;2024-03-22T00:09:07;101866.56;;;10.81;100.00
6028;BME280;3042;43.194;27.646;2024-03-22T00:11:35;101937.53;;;11.27;100.00
6028;BME280;3042;43.194;27.646;2024-03-22T00:14:02;101938.81;;;11.49;100.00
6028;BME280;3042;43.194;27.646;2024-03-22T00:16:29;101938.50;;;11.29;100.00
6028;BME280;3042;43.194;27.646;2024-03-22T00:18:56;101940.34;;;11.45;100.00
6028;BME280;3042;43.194;27.646;2024-03-22T00:21:23;101939.34;;;11.58;100.00
6028;BME280;3042;43.194;27.646;2024-03-22T00:23:50;101941.00;;;11.71;100.00
6028;BME280;3042;43.194;27.646;2024-03-22T00:26:16;101942.44;;;11.95;100.00
6028;BME280;3042;43.194;27.646;2024-03-22T00:28:45;101939.16;;;12.13;100.00
6028;BME280;3042;43.194;27.646;2024-03-22T00:31:11;101940.63;;;12.24;100.00
6028;BME280;3042;43.194;27.646;2024-03-22T00:33:38;101943.47;;;12.43;100.00
6028;BME280;3042;43.194;27.646;2024-03-22T00:36:05;101938.81;;;12.53;100.00
6028;BME280;3042;43.194;27.646;2024-03-22T00:38:33;101938.81;;;12.53;100.00
6028;BME280;3042;43.194;27.646;2024-03-22T00:40:59;101941.47;;;12.54;100.00
6028;BME280;3042;43.194;27.646;2024-03-22T00:43:26;101867.75;;;12.18;100.00
6028;BME280;3042;43.194;27.646;2024-03-22T00:45:54;101938.53;;;12.79;100.00
6028;BME280;3042;43.194;27.646;2024-03-22T00:48:21;101911.09;;;12.52;100.00
6028;BME280;3042;43.194;27.646;2024-03-22T00:50:47;101931.56;;;12.78;100.00
6028;BME280;3042;43.194;27.646;2024-03-22T00:53:14;101929.78;;;12.77;100.00
6028;BME280;3042;43.194;27.646;2024-03-22T00:55:41;101919.28;;;12.59;100.00
6028;BME280;3042;43.194;27.646;2024-03-22T00:58:08;101923.47;;;12.26;100.00
6028;BME280;3042;43.194;27.646;2024-03-22T01:00:34;101930.72;;;12.17;100.00
6028;BME280;3042;43.194;27.646;2024-03-22T01:03:04;101929.75;;;12.15;100.00
6028;BME280;3042;43.194;27.646;2024-03-22T01:05:31;101933.97;;;12.13;100.00
6028;BME280;3042;43.194;27.646;2024-03-22T01:07:58;101934.09;;;11.86;100.00
6028;BME280;3042;43.194;27.646;2024-03-22T01:10:24;101937.41;;;11.83;100.00
6028;BME280;3042;43.194;27.646;2024-03-22T01:12:52;101944.03;;;11.64;100.00
6028;BME280;3042;43.194;27.646;2024-03-22T01:15:18;101937.59;;;11.72;100.00
6028;BME280;3042;43.194;27.646;2024-03-22T01:17:46;101829.19;;;11.18;100.00
6028;BME280;3042;43.194;27.646;2024-03-22T01:20:13;101928.59;;;11.80;100.00
6028;BME280;3042;43.194;27.646;2024-03-22T01:22:41;101853.13;;;11.29;100.00
6028;BME280;3042;43.194;27.646;2024-03-22T01:25:07;101871.78;;;11.53;100.00
6028;BME280;3042;43.194;27.646;2024-03-22T01:27:35;101925.09;;;11.79;100.00
6028;BME280;3042;43.194;27.646;2024-03-22T01:30:01;101928.13;;;11.57;100.00
6028;BME280;3042;43.194;27.646;2024-03-22T01:32:28;101927.94;;;11.69;100.00
6028;BME280;3042;43.194;27.646;2024-03-22T01:34:54;101943.59;;;11.71;100.00
6028;BME280;3042;43.194;27.646;2024-03-22T01:37:23;101938.09;;;11.51;100.00
6028;BME280;3042;43.194;27.646;2024-03-22T01:39:49;101940.44;;;11.61;100.00
6028;BME280;3042;43.194;27.646;2024-03-22T01:42:16;101919.09;;;11.66;100.00
6028;BME280;3042;43.194;27.646;2024-03-22T01:44:42;101937.25;;;11.80;100.00
6028;BME280;3042;43.194;27.646;2024-03-22T01:47:10;101943.31;;;11.66;100.00
6028;BME280;3042;43.194;27.646;2024-03-22T01:49:37;101784.41;;;11.05;100.00
6028;BME280;3042;43.194;27.646;2024-03-22T01:52:05;101937.63;;;12.01;100.00
6028;BME280;3042;43.194;27.646;2024-03-22T01:54:33;101936.28;;;11.93;100.00
6028;BME280;3042;43.194;27.646;2024-03-22T01:57:00;101933.34;;;11.87;100.00
6028;BME280;3042;43.194;27.646;2024-03-22T01:59:28;101934.09;;;11.86;100.00
6028;BME280;3042;43.194;27.646;2024-03-22T02:01:55;101850.66;;;11.31;100.00
6028;BME280;3042;43.194;27.646;2024-03-22T02:04:21;101726.06;;;10.65;100.00
6028;BME280;3042;43.194;27.646;2024-03-22T02:06:48;101935.38;;;11.78;100.00
6028;BME280;3042;43.194;27.646;2024-03-22T02:09:15;101929.00;;;11.73;100.00
6028;BME280;3042;43.194;27.646;2024-03-22T02:11:44;101930.09;;;11.61;100.00
6028;BME280;3042;43.194;27.646;2024-03-22T02:14:10;101928.28;;;11.46;100.00
6028;BME280;3042;43.194;27.646;2024-03-22T02:16:39;101935.34;;;11.48;100.00
6028;BME280;3042;43.194;27.646;2024-03-22T02:19:06;101834.50;;;10.77;100.00
6028;BME280;3042;43.194;27.646;2024-03-22T02:21:33;101935.38;;;11.35;100.00
6028;BME280;3042;43.194;27.646;2024-03-22T02:24:00;101926.84;;;11.36;100.00
6028;BME280;3042;43.194;27.646;2024-03-22T02:26:28;101921.94;;;11.40;100.00
6028;BME280;3042;43.194;27.646;2024-03-22T02:28:54;101933.22;;;11.28;100.00
6028;BME280;3042;43.194;27.646;2024-03-22T02:31:21;101906.44;;;11.12;100.00
6028;BME280;3042;43.194;27.646;2024-03-22T02:33:47;101926.63;;;11.33;100.00
6028;BME280;3042;43.194;27.646;2024-03-22T02:36:15;101923.00;;;11.29;100.00
6028;BME280;3042;43.194;27.646;2024-03-22T02:38:41;101932.16;;;11.24;100.00
6028;BME280;3042;43.194;27.646;2024-03-22T02:41:09;101850.75;;;10.89;100.00
6028;BME280;3042;43.194;27.646;2024-03-22T02:43:35;101933.69;;;11.07;100.00
6028;BME280;3042;43.194;27.646;2024-03-22T02:46:03;101937.84;;;11.18;100.00
6028;BME280;3042;43.194;27.646;2024-03-22T02:48:29;101933.91;;;11.10;100.00
6028;BME280;3042;43.194;27.646;2024-03-22T02:50:57;101942.66;;;11.12;100.00
6028;BME280;3042;43.194;27.646;2024-03-22T02:53:23;101958.16;;;10.84;100.00
6028;BME280;3042;43.194;27.646;2024-03-22T02:55:51;101957.78;;;11.06;100.00
6028;BME280;3042;43.194;27.646;2024-03-22T02:58:20;101905.09;;;10.91;100.00
6028;BME280;3042;43.194;27.646;2024-03-22T03:00:47;101958.69;;;11.35;100.00
6028;BME280;3042;43.194;27.646;2024-03-22T03:03:13;101964.84;;;11.37;100.00
6028;BME280;3042;43.194;27.646;2024-03-22T03:05:42;101853.47;;;10.77;100.00
6028;BME280;3042;43.194;27.646;2024-03-22T03:08:08;101967.22;;;11.47;100.00
6028;BME280;3042;43.194;27.646;2024-03-22T03:10:35;101973.28;;;11.48;100.00
6028;BME280;3042;43.194;27.646;2024-03-22T03:13:01;101977.34;;;11.44;100.00
6028;BME280;3042;43.194;27.646;2024-03-22T03:15:30;101975.38;;;11.40;100.00
6028;BME280;3042;43.194;27.646;2024-03-22T03:17:56;101983.00;;;11.24;100.00
6028;BME280;3042;43.194;27.646;2024-03-22T03:20:24;101987.94;;;11.34;100.00
6028;BME280;3042;43.194;27.646;2024-03-22T03:22:51;101887.56;;;10.72;100.00
6028;BME280;3042;43.194;27.646;2024-03-22T03:25:18;101988.94;;;11.36;100.00
6028;BME280;3042;43.194;27.646;2024-03-22T03:27:44;101982.34;;;11.41;100.00
6028;BME280;3042;43.194;27.646;2024-03-22T03:30:12;101982.09;;;11.51;100.00
6028;BME280;3042;43.194;27.646;2024-03-22T03:32:39;101987.09;;;11.48;100.00
6028;BME280;3042;43.194;27.646;2024-03-22T03:35:07;101899.25;;;10.52;100.00
6028;BME280;3042;43.194;27.646;2024-03-22T03:37:33;102005.47;;;10.83;100.00
6028;BME280;3042;43.194;27.646;2024-03-22T03:40:00;101998.16;;;11.17;100.00
6028;BME280;3042;43.194;27.646;2024-03-22T03:42:26;101991.88;;;11.14;100.00
6028;BME280;3042;43.194;27.646;2024-03-22T03:44:54;101966.94;;;11.14;100.00
6028;BME280;3042;43.194;27.646;2024-03-22T03:47:20;101985.22;;;11.17;100.00
6028;BME280;3042;43.194;27.646;2024-03-22T03:49:49;101987.81;;;11.17;100.00
6028;BME280;3042;43.194;27.646;2024-03-22T03:52:15;101986.84;;;11.02;100.00
6028;BME280;3042;43.194;27.646;2024-03-22T03:54:42;101987.41;;;11.11;100.00
6028;BME280;3042;43.194;27.646;2024-03-22T03:57:08;101894.28;;;10.55;100.00
6028;BME280;3042;43.194;27.646;2024-03-22T03:59:35;102005.34;;;10.95;100.00
6028;BME280;3042;43.194;27.646;2024-03-22T04:02:01;102002.19;;;10.99;100.00
6028;BME280;3042;43.194;27.646;2024-03-22T04:04:28;102003.94;;;11.00;100.00
6028;BME280;3042;43.194;27.646;2024-03-22T04:06:56;101978.34;;;10.76;100.00
6028;BME280;3042;43.194;27.646;2024-03-22T04:09:23;102014.97;;;10.56;100.00
6028;BME280;3042;43.194;27.646;2024-03-22T04:11:50;102016.28;;;10.24;100.00
6028;BME280;3042;43.194;27.646;2024-03-22T04:14:17;102018.81;;;10.11;100.00
6028;BME280;3042;43.194;27.646;2024-03-22T04:16:43;101934.50;;;9.98;100.00
6028;BME280;3042;43.194;27.646;2024-03-22T04:19:10;102015.16;;;10.59;100.00
6028;BME280;3042;43.194;27.646;2024-03-22T04:21:36;102019.22;;;10.69;100.00
6028;BME280;3042;43.194;27.646;2024-03-22T04:24:05;102015.75;;;10.68;100.00
6028;BME280;3042;43.194;27.646;2024-03-22T04:26:31;102026.25;;;10.71;100.00
6028;BME280;3042;43.194;27.646;2024-03-22T04:28:59;102022.19;;;10.75;100.00
6028;BME280;3042;43.194;27.646;2024-03-22T04:31:25;102019.09;;;10.67;100.00
6028;BME280;3042;43.194;27.646;2024-03-22T04:33:52;102023.50;;;10.82;100.00
6028;BME280;3042;43.194;27.646;2024-03-22T04:36:18;102026.84;;;10.81;100.00
6028;BME280;3042;43.194;27.646;2024-03-22T04:38:45;102032.66;;;10.63;100.00
6028;BME280;3042;43.194;27.646;2024-03-22T04:41:14;102033.84;;;10.82;100.00
6028;BME280;3042;43.194;27.646;2024-03-22T04:43:40;102032.41;;;11.00;100.00
6028;BME280;3042;43.194;27.646;2024-03-22T04:46:08;101943.19;;;10.65;100.00
6028;BME280;3042;43.194;27.646;2024-03-22T04:48:34;102042.50;;;11.24;100.00
6028;BME280;3042;43.194;27.646;2024-03-22T04:51:01;102042.06;;;11.44;100.00
6028;BME280;3042;43.194;27.646;2024-03-22T04:53:28;102037.72;;;11.58;100.00
6028;BME280;3042;43.194;27.646;2024-03-22T04:55:55;102040.56;;;11.48;100.00
6028;BME280;3042;43.194;27.646;2024-03-22T04:58:23;102032.78;;;11.76;100.00
6028;BME280;3042;43.194;27.646;2024-03-22T05:00:56;102038.28;;;11.95;100.00
6028;BME280;3042;43.194;27.646;2024-03-22T05:03:22;102036.94;;;11.87;100.00
6028;BME280;3042;43.194;27.646;2024-03-22T05:05:50;101998.28;;;11.62;100.00
6028;BME280;3042;43.194;27.646;2024-03-22T05:08:16;102041.16;;;12.00;100.00
6028;BME280;3042;43.194;27.646;2024-03-22T05:10:43;102041.59;;;12.08;100.00
6028;BME280;3042;43.194;27.646;2024-03-22T05:13:09;102033.22;;;12.12;100.00
6028;BME280;3042;43.194;27.646;2024-03-22T05:15:40;102037.06;;;12.33;100.00
6028;BME280;3042;43.194;27.646;2024-03-22T05:18:06;102039.81;;;12.51;100.00
6028;BME280;3042;43.194;27.646;2024-03-22T05:20:34;102036.06;;;12.46;100.00
6028;BME280;3042;43.194;27.646;2024-03-22T05:23:00;102040.25;;;12.59;100.00
6028;BME280;3042;43.194;27.646;2024-03-22T05:25:27;102040.09;;;12.56;100.00
6028;BME280;3042;43.194;27.646;2024-03-22T05:27:53;102047.66;;;12.67;100.00
6028;BME280;3042;43.194;27.646;2024-03-22T05:30:20;102045.84;;;12.81;100.00
6028;BME280;3042;43.194;27.646;2024-03-22T05:32:48;101851.50;;;11.61;100.00
6028;BME280;3042;43.194;27.646;2024-03-22T05:35:16;102057.03;;;12.80;100.00
6028;BME280;3042;43.194;27.646;2024-03-22T05:37:42;102055.56;;;12.69;100.00
6028;BME280;3042;43.194;27.646;2024-03-22T05:40:10;102065.66;;;12.20;100.00
6028;BME280;3042;43.194;27.646;2024-03-22T05:42:36;102060.00;;;12.57;100.00
6028;BME280;3042;43.194;27.646;2024-03-22T05:45:04;102052.19;;;12.86;100.00
6028;BME280;3042;43.194;27.646;2024-03-22T05:47:31;102059.44;;;12.77;100.00
6028;BME280;3042;43.194;27.646;2024-03-22T05:50:00;102066.44;;;12.78;100.00
6028;BME280;3042;43.194;27.646;2024-03-22T05:52:27;102056.03;;;12.93;100.00
6028;BME280;3042;43.194;27.646;2024-03-22T05:54:54;102048.94;;;13.22;100.00
6028;BME280;3042;43.194;27.646;2024-03-22T05:57:21;101948.47;;;12.40;100.00
6028;BME280;3042;43.194;27.646;2024-03-22T05:59:48;102061.00;;;13.05;100.00
6028;BME280;3042;43.194;27.646;2024-03-22T06:02:14;102011.44;;;13.00;100.00
6028;BME280;3042;43.194;27.646;2024-03-22T06:04:42;102064.59;;;13.55;100.00
6028;BME280;3042;43.194;27.646;2024-03-22T06:07:09;102063.72;;;13.70;100.00
6028;BME280;3042;43.194;27.646;2024-03-22T06:09:37;102069.78;;;13.87;100.00
6028;BME280;3042;43.194;27.646;2024-03-22T06:12:04;102069.69;;;14.02;100.00
6028;BME280;3042;43.194;27.646;2024-03-22T06:14:32;101987.28;;;13.49;100.00
6028;BME280;3042;43.194;27.646;2024-03-22T06:16:58;102075.81;;;14.03;100.00
6028;BME280;3042;43.194;27.646;2024-03-22T06:19:25;102079.44;;;13.90;100.00
6028;BME280;3042;43.194;27.646;2024-03-22T06:21:51;102084.16;;;13.97;100.00
6028;BME280;3042;43.194;27.646;2024-03-22T06:24:20;102075.22;;;14.08;100.00
6028;BME280;3042;43.194;27.646;2024-03-22T06:26:46;102080.34;;;13.90;100.00
6028;BME280;3042;43.194;27.646;2024-03-22T06:29:15;102075.53;;;13.33;100.00
6028;BME280;3042;43.194;27.646;2024-03-22T06:31:42;102088.53;;;13.33;100.00
6028;BME280;3042;43.194;27.646;2024-03-22T06:34:09;102044.72;;;12.76;100.00
6028;BME280;3042;43.194;27.646;2024-03-22T06:36:35;102089.13;;;12.82;100.00
6028;BME280;3042;43.194;27.646;2024-03-22T06:39:04;102094.63;;;13.18;100.00
6028;BME280;3042;43.194;27.646;2024-03-22T06:41:34;102062.38;;;13.29;100.00
6028;BME280;3042;43.194;27.646;2024-03-22T06:44:01;102027.19;;;13.03;100.00
6028;BME280;3042;43.194;27.646;2024-03-22T06:46:29;102038.63;;;13.07;100.00
6028;BME280;3042;43.194;27.646;2024-03-22T06:48:58;101965.50;;;13.14;100.00
6028;BME280;3042;43.194;27.646;2024-03-22T06:51:24;102088.09;;;13.72;100.00
6028;BME280;3042;43.194;27.646;2024-03-22T06:53:51;101942.81;;;12.48;100.00
6028;BME280;3042;43.194;27.646;2024-03-22T06:56:17;102037.63;;;12.88;100.00
6028;BME280;3042;43.194;27.646;2024-03-22T06:58:46;101937.97;;;12.22;100.00
6028;BME280;3042;43.194;27.646;2024-03-22T07:01:12;102076.03;;;13.27;100.00
6028;BME280;3042;43.194;27.646;2024-03-22T07:03:40;102103.72;;;13.26;100.00
6028;BME280;3042;43.194;27.646;2024-03-22T07:06:06;102000.34;;;13.03;100.00
6028;BME280;3042;43.194;27.646;2024-03-22T07:08:35;102098.38;;;14.04;100.00
6028;BME280;3042;43.194;27.646;2024-03-22T07:11:05;102107.41;;;13.94;100.00
6028;BME280;3042;43.194;27.646;2024-03-22T07:13:32;102070.91;;;13.43;100.00
6028;BME280;3042;43.194;27.646;2024-03-22T07:16:00;102118.75;;;13.80;100.00
6028;BME280;3042;43.194;27.646;2024-03-22T07:18:28;102122.25;;;13.64;100.00
6028;BME280;3042;43.194;27.646;2024-03-22T07:20:54;102123.63;;;13.90;100.00
6028;BME280;3042;43.194;27.646;2024-03-22T07:23:21;102076.06;;;13.75;100.00
6028;BME280;3042;43.194;27.646;2024-03-22T07:25:47;102086.72;;;13.79;100.00
6028;BME280;3042;43.194;27.646;2024-03-22T07:28:14;102121.03;;;14.06;100.00
6028;BME280;3042;43.194;27.646;2024-03-22T07:30:42;102118.91;;;14.15;100.00
6028;BME280;3042;43.194;27.646;2024-03-22T07:33:11;102126.41;;;14.09;100.00
6028;BME280;3042;43.194;27.646;2024-03-22T07:35:39;102128.66;;;14.03;100.00
6028;BME280;3042;43.194;27.646;2024-03-22T07:38:06;102135.81;;;14.07;100.00
6028;BME280;3042;43.194;27.646;2024-03-22T07:40:32;102125.22;;;14.21;100.00
6028;BME280;3042;43.194;27.646;2024-03-22T07:43:00;102127.91;;;14.39;100.00
6028;BME280;3042;43.194;27.646;2024-03-22T07:45:31;102129.16;;;14.12;100.00
6028;BME280;3042;43.194;27.646;2024-03-22T07:47:58;101960.94;;;13.26;100.00
6028;BME280;3042;43.194;27.646;2024-03-22T07:50:26;102114.97;;;14.40;100.00
6028;BME280;3042;43.194;27.646;2024-03-22T07:52:53;102124.56;;;14.57;100.00
6028;BME280;3042;43.194;27.646;2024-03-22T07:55:20;102112.56;;;14.77;100.00
6028;BME280;3042;43.194;27.646;2024-03-22T07:57:47;102121.16;;;15.12;100.00
6028;BME280;3042;43.194;27.646;2024-03-22T08:00:13;102119.22;;;15.26;100.00
6028;BME280;3042;43.194;27.646;2024-03-22T08:02:41;102043.56;;;15.43;100.00
6028;BME280;3042;43.194;27.646;2024-03-22T08:05:07;102114.66;;;15.77;100.00
6028;BME280;3042;43.194;27.646;2024-03-22T08:07:36;102117.78;;;15.51;100.00
6028;BME280;3042;43.194;27.646;2024-03-22T08:10:03;102112.66;;;15.34;100.00
6028;BME280;3042;43.194;27.646;2024-03-22T08:12:30;102100.22;;;15.66;100.00
6028;BME280;3042;43.194;27.646;2024-03-22T08:14:56;102101.59;;;15.76;100.00
6028;BME280;3042;43.194;27.646;2024-03-22T08:17:24;102114.41;;;15.16;100.00
6028;BME280;3042;43.194;27.646;2024-03-22T08:19:50;102108.84;;;15.46;100.00
6028;BME280;3042;43.194;27.646;2024-03-22T08:22:17;102116.88;;;15.13;100.00
6028;BME280;3042;43.194;27.646;2024-03-22T08:24:45;102119.06;;;15.23;100.00
6028;BME280;3042;43.194;27.646;2024-03-22T08:27:12;102022.09;;;15.29;100.00
6028;BME280;3042;43.194;27.646;2024-03-22T08:29:40;102102.44;;;15.57;100.00
6028;BME280;3042;43.194;27.646;2024-03-22T08:32:07;102102.78;;;15.65;100.00
6028;BME280;3042;43.194;27.646;2024-03-22T08:34:33;102094.53;;;15.93;100.00
6028;BME280;3042;43.194;27.646;2024-03-22T08:37:01;101979.56;;;15.09;100.00
6028;BME280;3042;43.194;27.646;2024-03-22T08:39:29;102094.53;;;15.93;100.00
6028;BME280;3042;43.194;27.646;2024-03-22T08:41:58;102090.25;;;16.14;100.00
6028;BME280;3042;43.194;27.646;2024-03-22T08:44:24;101990.34;;;15.36;100.00
6028;BME280;3042;43.194;27.646;2024-03-22T08:46:52;102096.00;;;16.07;100.00
6028;BME280;3042;43.194;27.646;2024-03-22T08:49:18;102101.28;;;16.49;100.00
6028;BME280;3042;43.194;27.646;2024-03-22T08:51:46;102098.22;;;16.59;100.00
6028;BME280;3042;43.194;27.646;2024-03-22T08:54:13;101957.88;;;15.68;100.00
6028;BME280;3042;43.194;27.646;2024-03-22T08:56:41;102107.97;;;16.63;100.00
6028;BME280;3042;43.194;27.646;2024-03-22T08:59:08;102094.22;;;16.67;100.00
6028;BME280;3042;43.194;27.646;2024-03-22T09:01:36;101972.41;;;15.63;100.00
6028;BME280;3042;43.194;27.646;2024-03-22T09:04:02;102092.56;;;16.28;100.00
6028;BME280;3042;43.194;27.646;2024-03-22T09:06:29;102094.00;;;16.21;100.00
6028;BME280;3042;43.194;27.646;2024-03-22T09:08:56;102093.06;;;16.40;100.00
6028;BME280;3042;43.194;27.646;2024-03-22T09:11:24;102084.72;;;16.28;100.00
6028;BME280;3042;43.194;27.646;2024-03-22T09:13:52;102085.94;;;16.36;100.00
6028;BME280;3042;43.194;27.646;2024-03-22T09:16:21;102090.91;;;16.30;100.00
6028;BME280;3042;43.194;27.646;2024-03-22T09:18:47;102089.19;;;15.90;100.00
6028;BME280;3042;43.194;27.646;2024-03-22T09:21:14;102096.16;;;15.71;100.00
6028;BME280;3042;43.194;27.646;2024-03-22T09:23:40;101998.97;;;14.97;100.00
6028;BME280;3042;43.194;27.646;2024-03-22T09:26:08;102088.28;;;15.52;100.00
6028;BME280;3042;43.194;27.646;2024-03-22T09:28:34;102085.97;;;15.58;100.00
6028;BME280;3042;43.194;27.646;2024-03-22T09:31:04;102029.47;;;15.37;100.00
6028;BME280;3042;43.194;27.646;2024-03-22T09:33:33;102064.34;;;15.78;100.00
6028;BME280;3042;43.194;27.646;2024-03-22T09:36:01;102051.16;;;15.75;100.00
6028;BME280;3042;43.194;27.646;2024-03-22T09:38:27;102069.41;;;15.75;100.00
6028;BME280;3042;43.194;27.646;2024-03-22T09:40:55;102064.63;;;16.06;100.00
6028;BME280;3042;43.194;27.646;2024-03-22T09:43:21;102057.69;;;16.25;100.00
6028;BME280;3042;43.194;27.646;2024-03-22T09:45:49;101962.09;;;15.06;100.00
6028;BME280;3042;43.194;27.646;2024-03-22T09:51:03;102065.09;;;15.76;100.00
6028;BME280;3042;43.194;27.646;2024-03-22T09:53:30;102050.53;;;16.00;100.00
6028;BME280;3042;43.194;27.646;2024-03-22T09:55:59;102042.53;;;16.38;100.00
6028;BME280;3042;43.194;27.646;2024-03-22T09:58:27;102047.66;;;16.15;100.00
6028;BME280;3042;43.194;27.646;2024-03-22T10:00:54;102045.94;;;15.95;100.00
6028;BME280;3042;43.194;27.646;2024-03-22T10:03:26;102038.00;;;16.34;100.00
6028;BME280;3042;43.194;27.646;2024-03-22T10:05:53;102036.16;;;16.73;100.00
6028;BME280;3042;43.194;27.646;2024-03-22T10:08:21;102038.47;;;16.65;100.00
6028;BME280;3042;43.194;27.646;2024-03-22T10:10:48;102030.72;;;16.67;100.00
6028;BME280;3042;43.194;27.646;2024-03-22T10:13:15;102032.00;;;16.35;100.00
6028;BME280;3042;43.194;27.646;2024-03-22T10:15:42;102036.56;;;16.19;100.00
6028;BME280;3042;43.194;27.646;2024-03-22T10:18:10;101852.25;;;14.95;100.00
6028;BME280;3042;43.194;27.646;2024-03-22T10:20:37;102029.50;;;16.38;100.00
6028;BME280;3042;43.194;27.646;2024-03-22T10:23:03;101917.94;;;15.89;100.00
6028;BME280;3042;43.194;27.646;2024-03-22T10:25:32;102023.16;;;16.75;100.00
6028;BME280;3042;43.194;27.646;2024-03-22T10:27:59;102027.13;;;16.86;100.00
6028;BME280;3042;43.194;27.646;2024-03-22T10:30:26;102019.50;;;16.70;100.00
6028;BME280;3042;43.194;27.646;2024-03-22T10:32:53;102008.47;;;16.77;100.00
6028;BME280;3042;43.194;27.646;2024-03-22T10:35:21;101996.28;;;16.98;100.00
6028;BME280;3042;43.194;27.646;2024-03-22T10:37:49;101990.53;;;17.31;100.00
6028;BME280;3042;43.194;27.646;2024-03-22T10:40:17;101995.91;;;17.12;100.00
6028;BME280;3042;43.194;27.646;2024-03-22T10:42:46;101984.53;;;17.34;100.00
6028;BME280;3042;43.194;27.646;2024-03-22T10:45:13;101977.94;;;17.69;100.00
6028;BME280;3042;43.194;27.646;2024-03-22T10:47:40;101977.53;;;17.57;100.00
6028;BME280;3042;43.194;27.646;2024-03-22T10:50:08;101966.06;;;17.77;98.16
6028;BME280;3042;43.194;27.646;2024-03-22T10:52:39;101973.31;;;17.36;97.17
6028;BME280;3042;43.194;27.646;2024-03-22T10:55:10;101943.16;;;17.22;96.76
6028;BME280;3042;43.194;27.646;2024-03-22T10:57:38;101963.69;;;17.35;96.55
6028;BME280;3042;43.194;27.646;2024-03-22T11:00:11;101919.59;;;17.44;96.78
6028;BME280;3042;43.194;27.646;2024-03-22T11:02:37;101974.38;;;17.67;93.19
6028;BME280;3042;43.194;27.646;2024-03-22T11:05:05;101957.34;;;17.78;93.63
6028;BME280;3042;43.194;27.646;2024-03-22T11:07:32;101948.13;;;17.88;92.66
6028;BME280;3042;43.194;27.646;2024-03-22T11:10:01;101942.28;;;17.95;94.90
6028;BME280;3042;43.194;27.646;2024-03-22T11:12:29;101938.50;;;18.12;96.01
6028;BME280;3042;43.194;27.646;2024-03-22T11:14:59;101939.59;;;18.19;93.25
6028;BME280;3042;43.194;27.646;2024-03-22T11:17:27;101946.16;;;18.33;91.25
6028;BME280;3042;43.194;27.646;2024-03-22T11:19:55;101809.94;;;17.47;88.37
6028;BME280;3042;43.194;27.646;2024-03-22T11:22:21;101931.19;;;18.29;87.31
6028;BME280;3042;43.194;27.646;2024-03-22T11:24:48;101918.53;;;18.16;87.11
6028;BME280;3042;43.194;27.646;2024-03-22T11:27:14;101919.56;;;18.48;87.68
6028;BME280;3042;43.194;27.646;2024-03-22T11:29:41;101913.53;;;18.51;88.19
6028;BME280;3042;43.194;27.646;2024-03-22T11:32:09;101913.06;;;18.64;87.56
6028;BME280;3042;43.194;27.646;2024-03-22T11:34:38;101903.16;;;18.54;87.22
6028;BME280;3042;43.194;27.646;2024-03-22T11:37:06;101912.59;;;18.49;84.14
6028;BME280;3042;43.194;27.646;2024-03-22T11:39:36;101897.50;;;18.69;82.44
6028;BME280;3042;43.194;27.646;2024-03-22T11:42:04;101919.38;;;18.42;83.54
6028;BME280;3042;43.194;27.646;2024-03-22T11:44:32;101912.13;;;18.33;82.72
6028;BME280;3042;43.194;27.646;2024-03-22T11:46:59;101907.06;;;18.40;79.57
6028;BME280;3042;43.194;27.646;2024-03-22T11:49:27;101910.84;;;18.48;81.99
6028;BME280;3042;43.194;27.646;2024-03-22T11:51:55;101897.22;;;18.88;81.09
6028;BME280;3042;43.194;27.646;2024-03-22T11:54:23;101849.19;;;18.88;81.47
6028;BME280;3042;43.194;27.646;2024-03-22T11:56:49;101890.66;;;19.03;78.21
6028;BME280;3042;43.194;27.646;2024-03-22T11:59:19;101885.59;;;19.09;76.48
6028;BME280;3042;43.194;27.646;2024-03-22T12:01:46;101897.28;;;19.22;75.14
6028;BME280;3042;43.194;27.646;2024-03-22T12:04:13;101884.97;;;19.17;75.26
6028;BME280;3042;43.194;27.646;2024-03-22T12:06:41;101879.94;;;19.27;77.44
6028;BME280;3042;43.194;27.646;2024-03-22T12:09:10;101864.63;;;19.09;78.50
6028;BME280;3042;43.194;27.646;2024-03-22T12:11:38;101896.09;;;19.10;77.00
6028;BME280;3042;43.194;27.646;2024-03-22T12:14:06;101884.59;;;19.05;77.23
6028;BME280;3042;43.194;27.646;2024-03-22T12:16:32;101875.81;;;19.03;78.66
6028;BME280;3042;43.194;27.646;2024-03-22T12:18:59;101889.75;;;19.02;79.47
6028;BME280;3042;43.194;27.646;2024-03-22T12:21:25;101880.13;;;19.01;76.26
6028;BME280;3042;43.194;27.646;2024-03-22T12:23:53;101803.72;;;18.55;77.15
6028;BME280;3042;43.194;27.646;2024-03-22T12:26:21;101893.34;;;19.06;80.35
6028;BME280;3042;43.194;27.646;2024-03-22T12:28:48;101887.34;;;18.80;82.67
6028;BME280;3042;43.194;27.646;2024-03-22T12:31:17;101877.56;;;18.74;82.64
6028;BME280;3042;43.194;27.646;2024-03-22T12:33:44;101751.06;;;17.84;81.59
6028;BME280;3042;43.194;27.646;2024-03-22T12:36:11;101886.31;;;18.74;80.46
6028;BME280;3042;43.194;27.646;2024-03-22T12:38:37;101881.50;;;18.88;80.30
6028;BME280;3042;43.194;27.646;2024-03-22T12:41:05;101872.94;;;19.26;79.21
6028;BME280;3042;43.194;27.646;2024-03-22T12:43:33;101880.72;;;19.23;79.55
6028;BME280;3042;43.194;27.646;2024-03-22T12:46:00;101883.41;;;19.26;81.36
6028;BME280;3042;43.194;27.646;2024-03-22T12:48:26;101883.84;;;19.09;81.53
6028;BME280;3042;43.194;27.646;2024-03-22T12:50:54;101881.84;;;19.01;80.76
6028;BME280;3042;43.194;27.646;2024-03-22T12:53:20;101847.53;;;18.91;79.21
6028;BME280;3042;43.194;27.646;2024-03-22T12:55:47;101878.34;;;19.00;79.75